createdAt,value
2023-02-27T00:01:35.013Z,2.15
2023-02-27T00:11:39.647Z,2.22
2023-02-27T00:31:49.086Z,2.80
2023-02-27T00:51:56.246Z,2.42
2023-02-27T01:02:00.063Z,2.80
2023-02-27T01:12:06.501Z,2.63
2023-02-27T01:22:09.486Z,2.28
2023-02-27T01:32:13.981Z,2.22
2023-02-27T01:42:21.687Z,2.53
2023-02-27T01:52:26.122Z,2.55
2023-02-27T02:02:35.946Z,2.30
2023-02-27T02:12:41.668Z,2.30
2023-02-27T02:23:18.452Z,2.60
2023-02-27T02:33:52.248Z,2.92
2023-02-27T02:44:05.087Z,2.38
2023-02-27T02:54:14.180Z,2.67
2023-02-27T03:04:23.312Z,3.10
2023-02-27T03:14:31.750Z,3.08
2023-02-27T03:24:40.840Z,3.03
2023-02-27T03:34:45.239Z,2.65
2023-02-27T03:55:02.989Z,3.78
2023-02-27T04:05:08.533Z,3.20
2023-02-27T04:15:30.223Z,3.25
2023-02-27T04:25:44.569Z,3.50
2023-02-27T04:35:52.451Z,3.83
2023-02-27T04:45:59.764Z,3.00
2023-02-27T04:56:05.843Z,3.63
2023-02-27T05:06:12.583Z,2.97
2023-02-27T05:16:21.039Z,3.42
2023-02-27T05:26:34.307Z,3.35
2023-02-27T05:36:42.129Z,3.83
2023-02-27T05:46:53.249Z,3.80
2023-02-27T05:56:59.800Z,4.30
2023-02-27T06:07:06.914Z,4.05
2023-02-27T06:17:11.041Z,3.83
2023-02-27T06:27:15.559Z,3.88
2023-02-27T06:37:18.523Z,3.72
2023-02-27T06:47:22.890Z,4.20
2023-02-27T06:57:26.364Z,5.13
2023-02-27T07:07:34.941Z,4.63
2023-02-27T07:17:40.367Z,4.80
2023-02-27T07:27:46.807Z,4.80
2023-02-27T07:37:49.971Z,5.13
2023-02-27T07:47:54.627Z,4.85
2023-02-27T08:08:02.635Z,4.55
2023-02-27T08:28:10.321Z,5.10
2023-02-27T08:38:13.324Z,4.45
2023-02-27T08:48:18.620Z,4.25
2023-02-27T08:58:22.040Z,4.32
2023-02-27T09:08:26.645Z,3.67
2023-02-27T09:18:29.651Z,3.95
2023-02-27T09:28:34.518Z,4.20
2023-02-27T09:48:51.675Z,3.15
2023-02-27T09:59:02.608Z,2.95
2023-02-27T10:09:18.861Z,2.63
2023-02-27T10:19:28.681Z,2.28
2023-02-27T10:29:36.843Z,2.22
2023-02-27T10:39:47.522Z,1.70
2023-02-27T10:49:52.869Z,1.98
2023-02-27T10:59:59.006Z,2.60
2023-02-27T11:10:17.613Z,2.22
2023-02-27T11:20:36.000Z,1.85
2023-02-27T11:30:40.573Z,2.17
2023-02-27T11:40:55.839Z,2.47
2023-02-27T11:51:38.541Z,1.60
2023-02-27T12:01:46.722Z,1.92
2023-02-27T12:11:52.204Z,1.63
2023-02-27T12:22:00.554Z,1.65
2023-02-27T12:32:16.039Z,2.05
2023-02-27T12:42:44.416Z,2.35
2023-02-27T12:53:02.695Z,1.60
2023-02-27T13:03:14.058Z,2.63
2023-02-27T13:13:27.569Z,2.20
2023-02-27T13:23:48.559Z,2.47
2023-02-27T13:34:01.462Z,1.60
2023-02-27T13:44:40.282Z,1.83
2023-02-27T13:54:45.564Z,1.50
2023-02-27T14:04:51.679Z,1.45
2023-02-27T14:14:57.467Z,2.00
2023-02-27T14:25:06.653Z,1.27
2023-02-27T14:35:17.462Z,1.50
2023-02-27T14:45:24.509Z,1.40
2023-02-27T14:55:32.040Z,1.40
2023-02-27T15:05:35.628Z,1.20
2023-02-27T15:15:40.118Z,2.03
2023-02-27T15:25:43.691Z,1.33
2023-02-27T15:35:49.644Z,1.45
2023-02-27T15:45:53.926Z,2.10
2023-02-27T15:56:00.632Z,1.23
2023-02-27T16:06:11.313Z,2.17
2023-02-27T16:16:29.269Z,2.50
2023-02-27T16:26:36.825Z,2.08
2023-02-27T16:36:42.351Z,2.20
2023-02-27T16:46:55.391Z,4.13
2023-02-27T16:57:09.066Z,2.95
2023-02-27T17:07:17.477Z,2.53
2023-02-27T17:17:22.865Z,3.58
2023-02-27T17:27:25.836Z,3.22
2023-02-27T17:37:30.146Z,3.08
2023-02-27T17:47:33.174Z,3.40
2023-02-27T17:57:38.334Z,3.72
2023-02-27T18:07:41.516Z,3.80
2023-02-27T18:17:46.185Z,4.35
2023-02-27T18:27:49.203Z,4.10
2023-02-27T18:37:53.690Z,5.43
2023-02-27T18:47:57.259Z,5.37
2023-02-27T18:58:01.868Z,5.55
2023-02-27T19:08:05.083Z,5.38
2023-02-27T19:18:09.458Z,7.55
2023-02-27T19:28:12.870Z,5.77
2023-02-27T19:38:17.253Z,4.70
2023-02-27T19:48:20.372Z,5.07
2023-02-27T19:58:24.926Z,5.88
2023-02-27T20:08:27.937Z,7.45
2023-02-27T20:18:33.365Z,10.15
2023-02-27T20:28:37.749Z,8.20
2023-02-27T20:38:42.780Z,7.67
2023-02-27T20:48:47.020Z,7.57
2023-02-27T20:58:51.799Z,9.60
2023-02-27T21:19:00.089Z,8.65
2023-02-27T21:29:04.933Z,10.15
2023-02-27T21:39:11.487Z,8.68
2023-02-27T21:49:17.888Z,9.10
2023-02-27T21:59:22.266Z,8.98
2023-02-27T22:09:25.516Z,9.57
2023-02-27T22:19:30.070Z,8.98
2023-02-27T22:29:33.366Z,10.13
2023-02-27T22:39:37.768Z,10.32
2023-02-27T22:49:41.086Z,10.77
2023-02-27T22:59:45.804Z,10.65
2023-02-27T23:19:52.848Z,12.48
2023-02-27T23:29:55.838Z,12.25
2023-02-27T23:40:02.676Z,11.50
2023-02-27T23:50:09.330Z,11.77
